createdAt,value
2023-01-17T00:00:34.808Z,5.20
2023-01-17T00:03:01.585Z,4.90
2023-01-17T00:05:47.046Z,5.60
2023-01-17T00:08:32.621Z,5.78
2023-01-17T00:11:02.297Z,6.05
2023-01-17T00:13:28.897Z,5.88
2023-01-17T00:15:55.531Z,7.63
2023-01-17T00:18:22.234Z,6.70
2023-01-17T00:21:07.602Z,6.65
2023-01-17T00:23:59.665Z,5.63
2023-01-17T00:26:32.338Z,8.27
2023-01-17T00:28:58.881Z,6.25
2023-01-17T00:31:25.506Z,7.82
2023-01-17T00:33:52.083Z,7.78
2023-01-17T00:36:18.630Z,7.07
2023-01-17T00:38:45.162Z,9.50
2023-01-17T00:41:21.090Z,8.23
2023-01-17T00:44:06.268Z,8.48
2023-01-17T00:46:51.672Z,9.40
2023-01-17T00:49:37.015Z,6.65
2023-01-17T00:52:22.435Z,7.38
2023-01-17T00:55:07.718Z,8.73
2023-01-17T00:57:55.865Z,5.88
2023-01-17T01:00:41.391Z,5.70
2023-01-17T01:03:30.469Z,5.07
2023-01-17T01:06:15.879Z,6.32
2023-01-17T01:09:01.383Z,6.05
2023-01-17T01:11:46.790Z,6.47
2023-01-17T01:14:32.109Z,6.45
2023-01-17T01:17:17.802Z,6.45
2023-01-17T01:20:02.780Z,6.38
2023-01-17T01:22:48.502Z,7.57
2023-01-17T01:25:33.903Z,8.23
2023-01-17T01:28:31.167Z,7.07
2023-01-17T01:31:20.640Z,7.22
2023-01-17T01:33:47.475Z,8.10
2023-01-17T01:36:14.031Z,6.10
2023-01-17T01:38:40.601Z,9.07
2023-01-17T01:41:07.311Z,7.00
2023-01-17T01:43:41.576Z,7.82
2023-01-17T01:46:11.106Z,5.93
2023-01-17T01:48:51.549Z,5.65
2023-01-17T01:51:29.991Z,7.35
2023-01-17T01:54:04.221Z,7.95
2023-01-17T01:56:31.808Z,7.47
2023-01-17T01:59:01.475Z,7.55
2023-01-17T02:01:29.411Z,6.68
2023-01-17T02:03:56.168Z,7.72
2023-01-17T02:06:33.756Z,6.03
2023-01-17T02:09:05.835Z,4.78
2023-01-17T02:11:32.789Z,5.32
2023-01-17T02:13:59.499Z,8.57
2023-01-17T02:16:54.470Z,7.68
2023-01-17T02:19:42.209Z,6.93
2023-01-17T02:22:35.974Z,4.50
2023-01-17T02:25:08.462Z,6.78
2023-01-17T02:27:56.837Z,6.43
2023-01-17T02:30:50.378Z,4.78
2023-01-17T02:33:42.978Z,5.25
2023-01-17T02:38:55.795Z,4.95
2023-01-17T02:41:32.725Z,6.53
2023-01-17T02:44:01.550Z,5.10
2023-01-17T02:46:28.297Z,5.32
2023-01-17T02:48:57.230Z,11.55
2023-01-17T02:51:32.901Z,5.25
2023-01-17T02:54:16.179Z,6.50
2023-01-17T02:57:09.990Z,7.05
2023-01-17T03:00:06.386Z,5.15
2023-01-17T03:02:40.992Z,10.35
2023-01-17T03:05:13.452Z,7.68
2023-01-17T03:07:42.809Z,3.22
2023-01-17T03:10:11.390Z,3.17
2023-01-17T03:12:39.641Z,3.80
2023-01-17T03:15:11.854Z,3.80
2023-01-17T03:20:07.883Z,3.70
2023-01-17T03:22:34.435Z,6.80
2023-01-17T03:25:01.043Z,5.72
2023-01-17T03:27:27.609Z,7.70
2023-01-17T03:29:54.370Z,3.80
2023-01-17T03:32:20.925Z,3.38
2023-01-17T03:34:47.569Z,4.45
2023-01-17T03:37:14.218Z,4.18
2023-01-17T03:39:40.851Z,3.25
2023-01-17T03:42:07.668Z,3.72
2023-01-17T03:44:34.354Z,4.20
2023-01-17T03:47:01.100Z,3.85
2023-01-17T03:49:27.708Z,4.68
2023-01-17T03:51:54.342Z,6.57
2023-01-17T03:54:21.002Z,4.85
2023-01-17T03:56:47.646Z,3.80
2023-01-17T03:59:14.213Z,4.40
2023-01-17T04:01:40.805Z,5.70
2023-01-17T04:04:07.423Z,4.65
2023-01-17T04:06:33.995Z,3.05
2023-01-17T04:09:00.555Z,5.05
2023-01-17T04:11:27.177Z,3.78
2023-01-17T04:13:55.083Z,3.40
2023-01-17T04:16:24.139Z,4.20
2023-01-17T04:18:50.774Z,4.43
2023-01-17T04:21:17.425Z,3.30
2023-01-17T04:23:44.034Z,4.20
2023-01-17T04:26:12.512Z,2.75
2023-01-17T04:28:39.416Z,10.73
2023-01-17T04:31:06.312Z,4.03
2023-01-17T04:33:33.295Z,4.35
2023-01-17T04:35:59.855Z,3.45
2023-01-17T04:38:26.819Z,2.45
2023-01-17T04:40:53.359Z,4.07
2023-01-17T04:43:19.917Z,2.63
2023-01-17T04:45:46.567Z,2.75
2023-01-17T04:48:13.282Z,2.13
2023-01-17T04:50:39.961Z,2.65
2023-01-17T04:53:06.766Z,2.67
2023-01-17T04:55:33.349Z,1.85
2023-01-17T04:57:59.940Z,1.58
2023-01-17T05:00:26.595Z,1.40
2023-01-17T05:02:53.252Z,1.90
2023-01-17T05:05:19.881Z,1.70
2023-01-17T05:07:56.485Z,1.42
2023-01-17T05:10:23.334Z,1.85
2023-01-17T05:12:56.733Z,1.95
2023-01-17T05:15:24.743Z,1.27
2023-01-17T05:17:52.752Z,1.27
2023-01-17T05:20:20.510Z,1.55
2023-01-17T05:22:56.376Z,1.10
2023-01-17T05:25:24.289Z,1.33
2023-01-17T05:27:51.229Z,1.33
2023-01-17T05:30:18.290Z,1.10
2023-01-17T05:32:51.722Z,1.20
2023-01-17T05:35:20.831Z,3.67
2023-01-17T05:37:49.153Z,1.20
2023-01-17T05:40:20.837Z,1.23
2023-01-17T05:42:48.842Z,1.20
2023-01-17T05:45:17.047Z,1.67
2023-01-17T05:47:47.874Z,1.27
2023-01-17T05:50:16.933Z,2.00
2023-01-17T05:52:49.719Z,1.38
2023-01-17T05:55:16.456Z,1.58
2023-01-17T05:57:43.032Z,1.70
2023-01-17T06:00:10.313Z,1.50
2023-01-17T06:02:36.974Z,1.52
2023-01-17T06:05:04.128Z,1.95
2023-01-17T06:07:31.037Z,3.08
2023-01-17T06:09:57.796Z,1.10
2023-01-17T06:12:24.424Z,8.38
2023-01-17T06:14:51.010Z,2.85
2023-01-17T06:17:17.604Z,1.98
2023-01-17T06:19:45.341Z,1.95
2023-01-17T06:22:12.003Z,2.28
2023-01-17T06:24:38.731Z,1.80
2023-01-17T06:27:05.312Z,1.60
2023-01-17T06:29:31.859Z,1.95
2023-01-17T06:32:00.275Z,1.60
2023-01-17T06:34:28.514Z,2.47
2023-01-17T06:36:55.085Z,1.85
2023-01-17T06:39:21.803Z,5.30
2023-01-17T06:41:48.371Z,3.15
2023-01-17T06:44:15.008Z,1.70
2023-01-17T06:46:41.691Z,2.40
2023-01-17T06:49:08.270Z,1.08
2023-01-17T06:51:34.826Z,2.97
2023-01-17T06:54:01.374Z,1.73
2023-01-17T06:56:31.325Z,1.50
2023-01-17T06:58:57.929Z,1.15
2023-01-17T07:01:24.694Z,1.30
2023-01-17T07:03:52.422Z,1.90
2023-01-17T07:06:19.244Z,2.35
2023-01-17T07:08:47.355Z,2.03
2023-01-17T07:11:13.908Z,3.13
2023-01-17T07:13:40.542Z,1.30
2023-01-17T07:16:08.353Z,1.65
2023-01-17T07:18:35.216Z,2.70
2023-01-17T07:21:01.776Z,2.22
2023-01-17T07:23:28.380Z,5.20
2023-01-17T07:25:56.597Z,1.60
2023-01-17T07:28:24.133Z,2.45
2023-01-17T07:30:51.310Z,2.53
2023-01-17T07:33:18.199Z,1.92
2023-01-17T07:35:45.729Z,3.63
2023-01-17T07:38:17.662Z,1.98
2023-01-17T07:40:45.278Z,3.45
2023-01-17T07:43:15.359Z,8.90
2023-01-17T07:45:43.785Z,3.28
2023-01-17T07:48:11.270Z,3.28
2023-01-17T07:50:38.651Z,21.13
2023-01-17T07:53:05.703Z,4.40
2023-01-17T07:55:32.612Z,3.38
2023-01-17T07:58:00.355Z,3.38
2023-01-17T08:00:28.932Z,4.15
2023-01-17T08:02:57.203Z,2.80
2023-01-17T08:05:24.667Z,3.13
2023-01-17T08:07:51.460Z,2.00
2023-01-17T08:10:19.201Z,2.47
2023-01-17T08:12:50.169Z,3.17
2023-01-17T08:15:18.132Z,4.25
2023-01-17T08:17:48.553Z,4.05
2023-01-17T08:20:16.336Z,2.17
2023-01-17T08:22:43.053Z,8.05
2023-01-17T08:25:10.181Z,3.03
2023-01-17T08:27:36.848Z,3.20
2023-01-17T08:30:04.117Z,6.43
2023-01-17T08:32:30.852Z,4.93
2023-01-17T08:34:57.517Z,3.10
2023-01-17T08:37:24.767Z,2.40
2023-01-17T08:39:51.481Z,2.75
2023-01-17T08:42:18.460Z,3.15
2023-01-17T08:44:45.018Z,4.75
2023-01-17T08:47:11.636Z,5.05
2023-01-17T08:49:38.211Z,2.50
2023-01-17T08:52:05.325Z,4.90
2023-01-17T08:54:32.141Z,2.33
2023-01-17T08:56:58.730Z,2.50
2023-01-17T08:59:25.352Z,3.67
2023-01-17T09:01:54.291Z,3.28
2023-01-17T09:04:21.090Z,3.25
2023-01-17T09:06:48.285Z,2.67
2023-01-17T09:09:16.763Z,3.45
2023-01-17T09:11:43.429Z,3.40
2023-01-17T09:14:12.713Z,7.45
2023-01-17T09:16:39.356Z,4.47
2023-01-17T09:19:05.944Z,2.50
2023-01-17T09:21:32.883Z,2.72
2023-01-17T09:23:59.431Z,6.20
2023-01-17T09:26:28.878Z,2.28
2023-01-17T09:28:56.337Z,12.05
2023-01-17T09:31:23.486Z,6.78
2023-01-17T09:33:51.167Z,4.68
2023-01-17T09:36:18.138Z,5.90
2023-01-17T09:38:44.808Z,4.05
2023-01-17T09:41:22.673Z,12.02
2023-01-17T09:43:56.003Z,2.17
2023-01-17T09:46:27.889Z,2.83
2023-01-17T09:49:08.428Z,5.47
2023-01-17T09:51:36.061Z,2.67
2023-01-17T09:54:02.705Z,6.57
2023-01-17T09:56:31.509Z,3.85
2023-01-17T09:59:15.388Z,7.85
2023-01-17T10:02:01.120Z,3.85
2023-01-17T10:04:30.589Z,3.00
2023-01-17T10:07:17.404Z,5.80
2023-01-17T10:09:46.699Z,2.85
2023-01-17T10:12:13.230Z,4.13
2023-01-17T10:14:54.226Z,4.57
2023-01-17T10:17:43.526Z,5.28
2023-01-17T10:20:34.200Z,10.13
2023-01-17T10:23:00.823Z,4.75
2023-01-17T10:25:49.666Z,6.72
2023-01-17T10:28:21.955Z,3.67
2023-01-17T10:33:21.159Z,3.03
2023-01-17T10:35:59.286Z,4.88
2023-01-17T10:38:31.253Z,4.43
2023-01-17T10:41:27.085Z,7.40
2023-01-17T10:44:17.428Z,4.75
2023-01-17T10:47:06.181Z,5.13
2023-01-17T10:49:33.045Z,7.10
2023-01-17T10:52:08.260Z,7.78
2023-01-17T10:54:44.103Z,7.60
2023-01-17T10:57:19.501Z,4.90
2023-01-17T10:59:46.176Z,23.45
2023-01-17T11:02:24.254Z,10.43
2023-01-17T11:04:54.515Z,4.68
2023-01-17T11:07:25.108Z,2.92
2023-01-17T11:09:53.886Z,5.63
2023-01-17T11:12:47.004Z,3.72
2023-01-17T11:15:13.522Z,2.85
2023-01-17T11:17:52.892Z,2.17
2023-01-17T11:20:34.952Z,2.47
2023-01-17T11:23:07.368Z,2.35
2023-01-17T11:25:34.825Z,4.25
2023-01-17T11:28:16.562Z,7.65
2023-01-17T11:30:55.515Z,3.47
2023-01-17T11:33:47.747Z,6.15
2023-01-17T11:36:27.471Z,6.22
2023-01-17T11:39:16.914Z,4.10
2023-01-17T11:41:44.835Z,2.33
2023-01-17T11:44:30.212Z,2.88
2023-01-17T11:47:23.086Z,4.80
2023-01-17T11:49:50.001Z,2.92
2023-01-17T11:52:24.432Z,5.22
2023-01-17T11:54:54.278Z,13.80
2023-01-17T11:57:25.877Z,4.00
2023-01-17T12:00:32.702Z,7.10
2023-01-17T12:03:20.603Z,3.28
2023-01-17T12:06:08.266Z,5.85
2023-01-17T12:08:55.245Z,5.28
2023-01-17T12:11:36.096Z,7.18
2023-01-17T12:14:26.043Z,5.30
2023-01-17T12:17:01.676Z,3.75
2023-01-17T12:19:41.244Z,10.65
2023-01-17T12:22:19.854Z,3.38
2023-01-17T12:25:23.266Z,5.10
2023-01-17T12:28:25.820Z,7.85
2023-01-17T12:30:59.863Z,4.00
2023-01-17T12:33:55.330Z,6.05
2023-01-17T12:36:21.953Z,9.93
2023-01-17T12:38:48.909Z,3.83
2023-01-17T12:41:24.202Z,4.30
2023-01-17T12:43:56.387Z,3.05
2023-01-17T12:46:40.585Z,4.40
2023-01-17T12:49:29.375Z,6.60
2023-01-17T12:52:10.613Z,5.38
2023-01-17T12:54:42.609Z,8.07
2023-01-17T12:57:17.542Z,4.13
2023-01-17T13:00:06.990Z,2.10
2023-01-17T13:02:44.276Z,4.18
2023-01-17T13:05:17.180Z,4.88
2023-01-17T13:07:50.288Z,4.05
2023-01-17T13:10:25.938Z,3.70
2023-01-17T13:12:57.328Z,3.90
2023-01-17T13:15:28.413Z,5.27
2023-01-17T13:18:06.396Z,10.30
2023-01-17T13:20:48.295Z,5.72
2023-01-17T13:23:26.819Z,11.93
2023-01-17T13:25:57.359Z,10.82
2023-01-17T13:28:43.873Z,9.43
2023-01-17T13:31:34.908Z,4.75
2023-01-17T13:34:27.844Z,13.35
2023-01-17T13:37:05.609Z,5.30
2023-01-17T13:40:20.270Z,4.30
2023-01-17T13:42:55.292Z,12.15
2023-01-17T13:45:26.293Z,7.95
2023-01-17T13:47:53.867Z,6.82
2023-01-17T13:50:40.371Z,9.40
2023-01-17T13:53:28.900Z,9.82
2023-01-17T13:56:18.135Z,4.72
2023-01-17T13:58:51.725Z,3.97
2023-01-17T14:01:24.688Z,6.40
2023-01-17T14:03:54.641Z,8.77
2023-01-17T14:06:35.395Z,3.10
2023-01-17T14:09:08.112Z,4.88
2023-01-17T14:11:36.984Z,8.95
2023-01-17T14:14:43.602Z,9.73
2023-01-17T14:17:15.848Z,6.80
2023-01-17T14:22:21.019Z,11.35
2023-01-17T14:25:11.417Z,7.53
2023-01-17T14:28:03.477Z,5.40
2023-01-17T14:30:33.048Z,6.35
2023-01-17T14:33:00.775Z,8.65
2023-01-17T14:35:52.310Z,5.15
2023-01-17T14:38:25.520Z,6.72
2023-01-17T14:40:56.927Z,9.45
2023-01-17T14:43:26.025Z,7.97
2023-01-17T14:46:21.758Z,6.95
2023-01-17T14:48:48.629Z,7.15
2023-01-17T14:51:21.209Z,8.73
2023-01-17T14:53:56.446Z,8.48
2023-01-17T14:56:25.582Z,5.55
2023-01-17T14:59:10.971Z,5.45
2023-01-17T15:01:37.995Z,8.23
2023-01-17T15:04:04.765Z,6.53
2023-01-17T15:06:41.262Z,12.00
2023-01-17T15:09:16.293Z,11.02
2023-01-17T15:11:44.268Z,8.77
2023-01-17T15:14:19.054Z,7.00
2023-01-17T15:16:45.738Z,10.85
2023-01-17T15:19:14.451Z,7.07
2023-01-17T15:21:43.830Z,9.43
2023-01-17T15:24:17.988Z,4.65
2023-01-17T15:26:45.115Z,6.43
2023-01-17T15:29:19.190Z,8.18
2023-01-17T15:31:59.791Z,7.18
2023-01-17T15:34:33.645Z,7.43
2023-01-17T15:37:20.344Z,10.43
2023-01-17T15:39:47.579Z,8.93
2023-01-17T15:42:31.210Z,8.95
2023-01-17T15:45:01.752Z,13.15
2023-01-17T15:47:39.653Z,7.60
2023-01-17T15:50:23.565Z,11.35
2023-01-17T15:52:51.450Z,8.27
2023-01-17T15:55:33.085Z,8.57
2023-01-17T15:58:00.857Z,13.30
2023-01-17T16:00:39.087Z,14.85
2023-01-17T16:03:26.055Z,10.25
2023-01-17T16:05:54.310Z,7.13
2023-01-17T16:08:38.714Z,10.20
2023-01-17T16:11:06.929Z,10.70
2023-01-17T16:13:38.421Z,10.23
2023-01-17T16:16:12.440Z,10.45
2023-01-17T16:18:40.227Z,16.67
2023-01-17T16:21:20.448Z,10.65
2023-01-17T16:23:47.364Z,14.02
2023-01-17T16:26:14.148Z,14.15
2023-01-17T16:28:40.745Z,12.10
2023-01-17T16:31:07.420Z,17.95
2023-01-17T16:33:34.968Z,12.93
2023-01-17T16:36:01.547Z,12.93
2023-01-17T16:38:28.272Z,11.57
2023-01-17T16:40:55.032Z,14.07
2023-01-17T16:43:21.629Z,18.15
2023-01-17T16:45:52.496Z,10.45
2023-01-17T16:48:20.449Z,15.07
2023-01-17T16:50:52.128Z,15.70
2023-01-17T16:53:25.300Z,20.52
2023-01-17T16:55:58.058Z,11.85
2023-01-17T16:58:24.947Z,13.52
2023-01-17T17:00:52.121Z,12.95
2023-01-17T17:03:21.090Z,15.13
2023-01-17T17:05:58.629Z,10.50
2023-01-17T17:08:25.357Z,17.90
2023-01-17T17:10:52.215Z,16.13
2023-01-17T17:13:19.151Z,11.98
2023-01-17T17:15:46.218Z,17.38
2023-01-17T17:18:14.991Z,15.95
2023-01-17T17:20:42.029Z,14.77
2023-01-17T17:23:09.955Z,13.50
2023-01-17T17:25:37.143Z,17.33
2023-01-17T17:28:04.959Z,15.75
2023-01-17T17:30:32.242Z,14.90
2023-01-17T17:32:58.953Z,18.45
2023-01-17T17:35:25.688Z,28.02
2023-01-17T17:37:52.791Z,15.98
2023-01-17T17:40:19.731Z,24.77
2023-01-17T17:42:46.446Z,24.60
2023-01-17T17:45:13.246Z,16.67
2023-01-17T17:47:39.834Z,21.63
2023-01-17T17:50:06.975Z,28.27
2023-01-17T17:52:33.586Z,13.65
2023-01-17T17:55:00.197Z,16.65
2023-01-17T17:57:26.954Z,14.90
2023-01-17T17:59:56.595Z,16.88
2023-01-17T18:02:23.335Z,17.80
2023-01-17T18:04:49.971Z,12.27
2023-01-17T18:07:16.685Z,15.82
2023-01-17T18:09:43.315Z,14.02
2023-01-17T18:12:09.949Z,11.02
2023-01-17T18:14:36.834Z,13.48
2023-01-17T18:17:03.488Z,13.95
2023-01-17T18:19:30.159Z,10.60
2023-01-17T18:21:58.024Z,14.82
2023-01-17T18:24:25.489Z,13.05
2023-01-17T18:26:57.511Z,11.23
2023-01-17T18:29:25.669Z,11.13
2023-01-17T18:31:53.409Z,13.93
2023-01-17T18:34:28.955Z,11.93
2023-01-17T18:36:56.143Z,15.40
2023-01-17T18:39:26.114Z,10.80
2023-01-17T18:41:53.928Z,12.45
2023-01-17T18:44:22.213Z,10.45
2023-01-17T18:46:50.305Z,14.18
2023-01-17T18:49:19.033Z,13.90
2023-01-17T18:51:48.943Z,12.25
2023-01-17T18:54:16.351Z,14.15
2023-01-17T18:56:43.066Z,14.65
2023-01-17T18:59:13.117Z,17.17
2023-01-17T19:01:43.432Z,17.98
2023-01-17T19:04:11.961Z,13.48
2023-01-17T19:06:42.351Z,15.65
2023-01-17T19:09:11.628Z,20.80
2023-01-17T19:11:38.472Z,21.52
2023-01-17T19:14:06.339Z,20.00
2023-01-17T19:16:36.063Z,17.17
2023-01-17T19:19:06.142Z,16.15
2023-01-17T19:21:33.352Z,15.77
2023-01-17T19:24:00.182Z,21.58
2023-01-17T19:26:27.534Z,25.33
2023-01-17T19:28:56.127Z,19.50
2023-01-17T19:31:25.636Z,18.35
2023-01-17T19:33:54.402Z,13.40
2023-01-17T19:36:23.965Z,14.88
2023-01-17T19:39:03.479Z,15.50
2023-01-17T19:41:31.593Z,16.08
2023-01-17T19:44:07.104Z,11.80
2023-01-17T19:46:34.790Z,12.35
2023-01-17T19:49:02.035Z,17.73
2023-01-17T19:51:29.189Z,15.18
2023-01-17T19:53:58.761Z,12.52
2023-01-17T19:56:26.157Z,12.88
2023-01-17T19:58:53.169Z,9.75
2023-01-17T20:01:26.540Z,10.35
2023-01-17T20:03:54.562Z,13.45
2023-01-17T20:06:24.150Z,11.10
2023-01-17T20:08:50.733Z,14.02
2023-01-17T20:11:19.983Z,9.32
2023-01-17T20:13:54.298Z,8.80
2023-01-17T20:16:22.247Z,17.58
2023-01-17T20:18:49.226Z,9.73
2023-01-17T20:21:23.702Z,10.80
2023-01-17T20:23:51.903Z,12.43
2023-01-17T20:26:21.672Z,12.18
2023-01-17T20:28:51.233Z,11.40
2023-01-17T20:31:20.383Z,11.00
2023-01-17T20:33:50.354Z,11.45
2023-01-17T20:36:18.411Z,11.80
2023-01-17T20:38:45.209Z,13.93
2023-01-17T20:41:14.563Z,15.07
2023-01-17T20:43:42.623Z,14.82
2023-01-17T20:46:09.979Z,14.48
2023-01-17T20:48:39.080Z,14.45
2023-01-17T20:51:10.435Z,13.02
2023-01-17T20:53:38.674Z,13.30
2023-01-17T20:56:05.954Z,18.13
2023-01-17T20:58:33.975Z,12.07
2023-01-17T21:01:00.775Z,17.80
2023-01-17T21:03:33.270Z,9.13
2023-01-17T21:06:05.628Z,13.00
2023-01-17T21:08:33.819Z,9.98
2023-01-17T21:11:00.902Z,9.50
2023-01-17T21:13:27.932Z,11.30
2023-01-17T21:15:55.150Z,10.63
2023-01-17T21:18:23.220Z,20.98
2023-01-17T21:20:50.489Z,14.90
2023-01-17T21:23:20.482Z,9.90
2023-01-17T21:25:55.664Z,11.15
2023-01-17T21:28:24.335Z,14.27
2023-01-17T21:30:51.942Z,12.82
2023-01-17T21:33:20.106Z,11.27
2023-01-17T21:35:47.723Z,11.45
2023-01-17T21:38:15.140Z,13.65
2023-01-17T21:40:43.306Z,11.93
2023-01-17T21:43:10.724Z,12.55
2023-01-17T21:45:38.628Z,11.15
2023-01-17T21:48:06.582Z,8.90
2023-01-17T21:50:33.999Z,8.50
2023-01-17T21:53:00.776Z,11.32
2023-01-17T21:55:46.067Z,11.38
2023-01-17T21:58:35.479Z,19.35
2023-01-17T22:01:15.885Z,8.80
2023-01-17T22:03:42.779Z,15.35
2023-01-17T22:06:10.196Z,14.77
2023-01-17T22:08:37.577Z,11.23
2023-01-17T22:11:07.237Z,13.90
2023-01-17T22:13:35.075Z,13.10
2023-01-17T22:16:03.881Z,15.23
2023-01-17T22:18:31.183Z,18.33
2023-01-17T22:20:57.979Z,8.98
2023-01-17T22:23:24.590Z,18.65
2023-01-17T22:25:51.177Z,13.23
2023-01-17T22:28:17.877Z,10.38
2023-01-17T22:30:44.586Z,11.85
2023-01-17T22:33:11.144Z,13.00
2023-01-17T22:35:37.726Z,15.38
2023-01-17T22:38:04.262Z,11.27
2023-01-17T22:40:32.644Z,12.30
2023-01-17T22:42:59.532Z,9.77
2023-01-17T22:45:27.277Z,9.75
2023-01-17T22:47:53.872Z,16.65
2023-01-17T22:50:20.480Z,18.98
2023-01-17T22:52:47.097Z,13.73
2023-01-17T22:55:13.706Z,11.65
2023-01-17T22:57:40.355Z,10.32
2023-01-17T23:00:14.250Z,8.90
2023-01-17T23:02:41.860Z,12.80
2023-01-17T23:05:09.836Z,8.88
2023-01-17T23:07:46.383Z,28.33
2023-01-17T23:10:34.108Z,8.57
2023-01-17T23:13:00.651Z,10.68
2023-01-17T23:15:46.192Z,8.45
2023-01-17T23:18:31.390Z,7.13
2023-01-17T23:20:58.011Z,12.25
2023-01-17T23:23:24.534Z,22.52
2023-01-17T23:25:51.165Z,10.30
2023-01-17T23:28:20.729Z,9.52
2023-01-17T23:30:48.023Z,8.20
2023-01-17T23:33:16.577Z,9.63
2023-01-17T23:35:46.004Z,15.73
2023-01-17T23:38:29.660Z,14.57
2023-01-17T23:41:26.318Z,14.05
2023-01-17T23:43:54.844Z,10.32
2023-01-17T23:46:21.697Z,8.35
2023-01-17T23:48:48.712Z,11.68
2023-01-17T23:51:15.354Z,9.73
2023-01-17T23:53:42.424Z,10.13
2023-01-17T23:56:23.349Z,10.00
2023-01-17T23:58:50.389Z,9.90
